Time;durP1;ratioP1;P1;durP2;ratioP2;P2;SDS_P1;SDS_P2;PMS_P1;PMS_P2;Temp;Humidity;BMP_temperature;BMP_pressure;BME280_temperature;BME280_humidity;BME280_pressure;Samples;Min_cycle;Max_cycle;Signal;HPM_P1;HPM_P2
2024/04/01 00:01:02;;;;;;;40.40;19.30;;;;;;;10.90;100.00;99182.47;8368962;28;20056;-84
2024/04/01 00:05:03;;;;;;;32.45;19.77;;;;;;;11.04;100.00;99181.34;8352961;28;20084;-85
2024/04/01 00:09:04;;;;;;;41.03;20.52;;;;;;;11.08;100.00;99186.03;8369603;28;20088;-84
2024/04/01 00:13:04;;;;;;;35.65;19.20;;;;;;;11.32;100.00;99176.38;8373785;28;20053;-86
2024/04/01 00:17:05;;;;;;;60.17;26.98;;;;;;;10.96;100.00;99171.72;8376506;28;20045;-86
2024/04/01 00:21:06;;;;;;;51.63;21.85;;;;;;;11.53;100.00;99164.44;8360766;28;20056;-86
2024/04/01 00:25:07;;;;;;;43.35;21.77;;;;;;;11.38;100.00;99156.72;8372133;28;20052;-86
2024/04/01 00:29:08;;;;;;;45.45;22.25;;;;;;;11.63;100.00;99158.56;8341697;28;20082;-88
2024/04/01 00:33:09;;;;;;;46.03;22.55;;;;;;;11.14;100.00;99141.50;8330945;28;20417;-86
2024/04/01 00:37:10;;;;;;;42.55;21.95;;;;;;;11.17;100.00;99138.38;8330124;28;20092;-87
2024/04/01 00:41:11;;;;;;;41.75;21.25;;;;;;;11.07;100.00;99138.03;8358540;28;20056;-86
2024/04/01 00:45:13;;;;;;;38.00;20.50;;;;;;;10.80;100.00;99124.03;8358916;28;20052;-86
2024/04/01 00:49:14;;;;;;;37.97;21.20;;;;;;;11.11;100.00;99104.41;8359451;28;20084;-87
2024/04/01 00:53:17;;;;;;;49.97;24.00;;;;;;;10.33;100.00;99091.38;8363229;28;20053;-86
2024/04/01 00:57:20;;;;;;;55.13;23.65;;;;;;;10.92;100.00;99100.81;8373379;28;20103;-86
2024/04/01 01:01:22;;;;;;;44.35;25.60;;;;;;;10.79;100.00;99085.69;8361089;28;20093;-86
2024/04/01 01:05:23;;;;;;;50.42;24.73;;;;;;;10.45;100.00;99099.53;8360501;28;20080;-86
2024/04/01 01:09:28;;;;;;;49.97;25.08;;;;;;;10.59;100.00;99111.81;8376228;28;20103;-86
2024/04/01 01:13:28;;;;;;;49.03;25.08;;;;;;;10.61;100.00;99120.44;8374574;28;20099;-86
2024/04/01 01:17:29;;;;;;;51.58;23.83;;;;;;;10.91;100.00;99130.53;8357771;28;20060;-86
2024/04/01 01:21:30;;;;;;;42.80;24.60;;;;;;;10.71;100.00;99126.13;8374246;28;20387;-86
2024/04/01 01:25:30;;;;;;;52.45;25.20;;;;;;;10.62;100.00;99122.09;8357303;28;20041;-85
2024/04/01 01:29:31;;;;;;;41.33;24.70;;;;;;;10.46;100.00;99128.78;8382984;28;20060;-86
2024/04/01 01:33:32;;;;;;;47.50;25.58;;;;;;;10.35;100.00;99121.41;8393249;28;20061;-86
2024/04/01 01:37:33;;;;;;;44.63;24.58;;;;;;;10.71;100.00;99109.25;8371215;28;20087;-86
2024/04/01 01:41:34;;;;;;;42.13;23.85;;;;;;;10.78;100.00;99104.66;8355230;28;20053;-86
2024/04/01 01:45:34;;;;;;;46.70;24.15;;;;;;;10.49;100.00;99111.44;8357706;28;20524;-86
2024/04/01 01:49:35;;;;;;;47.70;22.50;;;;;;;10.50;100.00;99092.50;8378847;28;20049;-86
2024/04/01 01:53:35;;;;;;;43.65;23.83;;;;;;;10.56;100.00;99098.81;8360815;28;20060;-86
2024/04/01 01:57:36;;;;;;;48.28;23.48;;;;;;;10.47;100.00;99100.97;8375731;28;20048;-86
2024/04/01 02:01:37;;;;;;;49.70;23.23;;;;;;;10.84;100.00;99099.25;8359652;28;20053;-86
2024/04/01 02:05:39;;;;;;;48.72;24.13;;;;;;;10.61;100.00;99095.53;8345424;28;20059;-85
2024/04/01 02:09:40;;;;;;;52.60;23.55;;;;;;;10.43;100.00;99098.94;8326856;28;20497;-85
2024/04/01 02:13:41;;;;;;;42.80;23.52;;;;;;;10.59;100.00;99093.06;8363588;28;20057;-85
2024/04/01 02:17:42;;;;;;;46.58;24.23;;;;;;;10.51;100.00;99093.31;8358371;28;20133;-85
2024/04/01 02:21:44;;;;;;;37.97;23.67;;;;;;;10.58;100.00;99086.03;8361384;28;20056;-86
2024/04/01 02:25:45;;;;;;;48.03;22.80;;;;;;;10.18;100.00;99074.75;8368362;28;20057;-86
2024/04/01 02:29:45;;;;;;;47.95;26.33;;;;;;;10.21;100.00;99068.97;8363723;28;20057;-85
2024/04/01 02:33:46;;;;;;;47.38;23.60;;;;;;;10.01;100.00;99068.25;8361115;28;20063;-85
2024/04/01 02:37:47;;;;;;;42.33;23.20;;;;;;;9.91;100.00;99066.84;8338781;28;20045;-85
2024/04/01 02:41:48;;;;;;;36.45;23.90;;;;;;;10.04;100.00;99073.16;8346636;28;20045;-85
2024/04/01 02:45:49;;;;;;;49.83;22.63;;;;;;;10.22;100.00;99067.94;8339165;28;20092;-85
2024/04/01 02:49:50;;;;;;;41.60;22.88;;;;;;;10.00;100.00;99074.63;8378477;28;20080;-85
2024/04/01 02:53:50;;;;;;;43.55;22.48;;;;;;;10.08;100.00;99077.06;8364927;28;20063;-85
2024/04/01 02:57:51;;;;;;;46.90;24.17;;;;;;;9.98;100.00;99056.94;8379262;28;20066;-85
2024/04/01 03:01:52;;;;;;;53.42;24.70;;;;;;;9.81;100.00;99065.66;8378854;28;20531;-85
2024/04/01 03:05:52;;;;;;;38.50;22.63;;;;;;;9.62;100.00;99062.84;8380346;28;20033;-85
2024/04/01 03:09:56;;;;;;;39.22;22.65;;;;;;;9.96;100.00;99058.19;8368711;28;20421;-85
2024/04/01 03:13:57;;;;;;;50.38;23.67;;;;;;;10.25;100.00;99054.97;8377088;28;20099;-86
2024/04/01 03:18:00;;;;;;;40.83;22.95;;;;;;;10.04;100.00;99049.91;8360221;28;20138;-86
2024/04/01 03:22:01;;;;;;;45.35;23.77;;;;;;;10.14;100.00;99034.22;8360001;28;20500;-86
2024/04/01 03:26:02;;;;;;;49.97;22.83;;;;;;;9.80;100.00;99037.28;8377045;28;20110;-86
2024/04/01 03:30:03;;;;;;;45.92;21.58;;;;;;;9.87;100.00;99040.72;8379655;28;20053;-85
2024/04/01 03:34:03;;;;;;;48.13;23.10;;;;;;;9.74;100.00;99024.75;8362387;28;20543;-84
2024/04/01 03:38:04;;;;;;;37.80;21.60;;;;;;;9.67;100.00;99020.25;8377868;28;20100;-85
2024/04/01 03:42:06;;;;;;;47.40;22.48;;;;;;;9.90;100.00;99014.38;8361735;28;20057;-85
2024/04/01 03:46:08;;;;;;;52.60;24.05;;;;;;;10.07;100.00;99009.34;8377174;28;20080;-85
2024/04/01 03:50:11;;;;;;;57.60;24.17;;;;;;;9.98;100.00;99006.09;8375647;28;20084;-85
2024/04/01 03:54:11;;;;;;;50.60;25.00;;;;;;;10.13;100.00;98997.78;8359266;28;20088;-85
2024/04/01 03:58:15;;;;;;;45.67;21.92;;;;;;;9.92;100.00;98990.09;8357687;28;20049;-85
2024/04/01 04:02:16;;;;;;;51.05;23.40;;;;;;;10.02;100.00;98989.59;8356777;28;20088;-84
2024/04/01 04:06:16;;;;;;;58.58;23.58;;;;;;;10.16;100.00;98978.59;8358713;28;20444;-84
2024/04/01 04:10:17;;;;;;;47.10;23.25;;;;;;;10.23;100.00;98966.00;8374106;28;20103;-84
2024/04/01 04:14:19;;;;;;;48.45;21.95;;;;;;;10.21;100.00;98967.28;8374060;28;20053;-85
2024/04/01 04:18:19;;;;;;;43.72;22.63;;;;;;;9.91;100.00;98962.53;8373622;28;20073;-84
2024/04/01 04:22:21;;;;;;;46.35;22.63;;;;;;;10.06;100.00;98964.88;8382259;28;20064;-85
2024/04/01 04:26:21;;;;;;;54.65;23.30;;;;;;;9.95;100.00;98953.03;8388988;28;20057;-85
2024/04/01 04:30:22;;;;;;;50.00;23.73;;;;;;;10.00;100.00;98959.56;8384190;28;20053;-85
2024/04/01 04:34:23;;;;;;;41.67;22.98;;;;;;;10.04;100.00;98955.44;8363596;28;20056;-85
2024/04/01 04:38:24;;;;;;;53.28;24.30;;;;;;;9.73;100.00;98954.41;8359474;28;20052;-85
2024/04/01 04:42:24;;;;;;;41.80;23.50;;;;;;;9.47;100.00;98973.25;8359985;28;20052;-85
2024/04/01 04:46:25;;;;;;;51.53;24.08;;;;;;;9.90;100.00;98960.06;8352315;28;20386;-85
2024/04/01 04:50:25;;;;;;;52.72;24.13;;;;;;;10.18;100.00;98973.84;8358621;28;20053;-85
2024/04/01 04:54:28;;;;;;;53.63;21.75;;;;;;;9.99;100.00;98972.13;8370265;28;20067;-84
2024/04/01 04:58:29;;;;;;;48.40;21.90;;;;;;;9.86;100.00;98975.69;8351631;28;20124;-84
2024/04/01 05:02:30;;;;;;;58.00;21.73;;;;;;;9.85;100.00;98979.41;8354723;28;20060;-84
2024/04/01 05:06:31;;;;;;;47.42;22.98;;;;;;;9.86;100.00;98961.50;8371298;28;20103;-84
2024/04/01 05:10:33;;;;;;;37.20;21.35;;;;;;;9.93;100.00;98956.97;8371646;28;20486;-85
2024/04/01 05:14:34;;;;;;;57.17;21.77;;;;;;;10.01;100.00;98948.66;8357290;28;20088;-86
2024/04/01 05:18:35;;;;;;;45.78;21.75;;;;;;;10.06;100.00;98942.66;8355725;28;20056;-85
2024/04/01 05:22:36;;;;;;;57.85;23.35;;;;;;;9.99;100.00;98932.00;8373205;28;20083;-85
2024/04/01 05:26:36;;;;;;;48.42;21.05;;;;;;;10.06;100.00;98922.06;8372972;28;20053;-84
2024/04/01 05:30:38;;;;;;;50.80;20.27;;;;;;;10.22;100.00;98923.41;8374117;28;20095;-85
2024/04/01 05:34:38;;;;;;;45.13;20.17;;;;;;;10.03;100.00;98914.47;8357371;28;20057;-85
2024/04/01 05:38:40;;;;;;;48.97;20.85;;;;;;;10.18;100.00;98893.56;8360118;28;20429;-85
2024/04/01 05:42:40;;;;;;;45.72;20.65;;;;;;;10.22;100.00;98878.72;8357053;28;20099;-85
2024/04/01 05:46:41;;;;;;;43.55;19.98;;;;;;;10.24;100.00;98882.03;8376655;28;20095;-85
2024/04/01 05:50:49;;;;;;;51.65;20.17;;;;;;;10.26;100.00;98890.66;8362120;28;20424;-85
2024/04/01 05:54:50;;;;;;;36.22;19.15;;;;;;;10.54;100.00;98900.06;8379419;28;20513;-85
2024/04/01 05:58:50;;;;;;;50.03;19.83;;;;;;;10.46;100.00;98911.88;8379267;28;20065;-85
2024/04/01 06:02:53;;;;;;;53.13;20.13;;;;;;;10.76;100.00;98921.88;8362774;28;20083;-86
2024/04/01 06:06:53;;;;;;;49.30;19.80;;;;;;;10.74;100.00;98916.75;8362224;28;20088;-85
2024/04/01 06:10:54;;;;;;;43.63;19.00;;;;;;;10.94;100.00;98923.78;8379904;28;20144;-85
2024/04/01 06:14:55;;;;;;;50.13;18.45;;;;;;;11.05;100.00;98929.19;8382080;28;20059;-83
2024/04/01 06:18:56;;;;;;;48.47;20.98;;;;;;;11.33;100.00;98930.53;8379532;28;20049;-85
2024/04/01 06:22:56;;;;;;;47.28;17.70;;;;;;;11.36;100.00;98928.22;8379177;28;20493;-84
2024/04/01 06:26:57;;;;;;;50.13;17.05;;;;;;;11.28;100.00;98911.59;8364950;28;20053;-85
2024/04/01 06:30:58;;;;;;;65.53;17.55;;;;;;;11.42;100.00;98903.16;8364968;28;20061;-85
2024/04/01 06:34:59;;;;;;;65.20;17.67;;;;;;;11.42;100.00;98900.47;8361428;28;20056;-85
2024/04/01 06:39:00;;;;;;;48.03;15.35;;;;;;;11.69;100.00;98898.28;8362299;28;20103;-85
2024/04/01 06:43:01;;;;;;;55.88;16.00;;;;;;;11.51;100.00;98887.59;8361852;28;20053;-85
2024/04/01 06:47:01;;;;;;;40.38;15.63;;;;;;;11.78;100.00;98871.91;8370086;28;20077;-85
2024/04/01 06:51:02;;;;;;;43.78;14.35;;;;;;;11.84;100.00;98870.22;8332054;28;20063;-84
2024/04/01 06:55:04;;;;;;;54.20;14.55;;;;;;;12.02;100.00;98873.66;8347221;28;20050;-83
2024/04/01 06:59:05;;;;;;;40.97;15.45;;;;;;;12.03;100.00;98875.28;8374528;28;20103;-84
2024/04/01 07:03:06;;;;;;;49.05;15.25;;;;;;;11.98;100.00;98893.13;8364643;28;20088;-82
2024/04/01 07:07:07;;;;;;;37.00;15.73;;;;;;;12.20;100.00;98870.03;8377389;28;20114;-84
2024/04/01 07:11:08;;;;;;;46.40;15.30;;;;;;;12.27;100.00;98878.78;8358601;28;20394;-83
2024/04/01 07:15:09;;;;;;;46.42;13.73;;;;;;;12.35;100.00;98902.63;8372248;28;20063;-82
2024/04/01 07:19:11;;;;;;;70.68;15.00;;;;;;;12.72;100.00;98886.28;8371750;28;20124;-84
2024/04/01 07:23:12;;;;;;;42.25;13.20;;;;;;;12.81;100.00;98903.66;8369452;28;20172;-81
2024/04/01 07:27:13;;;;;;;44.75;14.30;;;;;;;13.13;100.00;98914.00;8383313;28;20049;-80
2024/04/01 07:31:13;;;;;;;43.28;12.63;;;;;;;12.92;100.00;98905.53;8361688;28;20056;-81
2024/04/01 07:35:14;;;;;;;41.95;12.23;;;;;;;13.37;100.00;98888.72;8362493;28;20061;-82
2024/04/01 07:39:16;;;;;;;44.97;13.70;;;;;;;13.18;100.00;98881.88;8378282;28;20103;-81
2024/04/01 07:43:17;;;;;;;39.88;13.10;;;;;;;13.11;100.00;98870.41;8361691;28;20093;-82
2024/04/01 07:47:19;;;;;;;56.22;13.20;;;;;;;13.37;99.08;98861.00;8376472;28;20053;-82
2024/04/01 07:51:20;;;;;;;51.33;14.10;;;;;;;13.38;98.31;98841.94;8366941;28;20053;-82
2024/04/01 07:55:20;;;;;;;57.47;15.35;;;;;;;13.22;99.91;98835.47;8385528;28;20053;-82
2024/04/01 07:59:21;;;;;;;47.60;13.45;;;;;;;13.96;93.53;98837.28;8385271;28;20049;-81
2024/04/01 08:03:22;;;;;;;51.13;13.10;;;;;;;13.63;95.01;98830.00;8383234;28;20076;-82
2024/04/01 08:07:23;;;;;;;44.70;11.90;;;;;;;13.98;92.88;98835.97;8380301;28;20056;-82
2024/04/01 08:11:23;;;;;;;52.90;12.05;;;;;;;14.21;91.16;98832.28;8360518;28;20060;-82
2024/04/01 08:15:24;;;;;;;40.30;12.35;;;;;;;14.40;89.30;98822.84;8373901;28;20106;-81
2024/04/01 08:19:29;;;;;;;38.55;11.35;;;;;;;14.32;89.30;98817.09;8374790;28;20049;-81
2024/04/01 08:23:31;;;;;;;35.38;10.35;;;;;;;14.51;85.50;98817.66;8374459;28;20480;-82
2024/04/01 08:27:33;;;;;;;49.08;11.55;;;;;;;14.76;84.17;98794.56;8359737;28;20095;-81
2024/04/01 08:31:33;;;;;;;43.08;12.07;;;;;;;14.92;81.36;98775.84;8386245;28;20053;-81
2024/04/01 08:35:34;;;;;;;48.53;10.93;;;;;;;14.76;81.85;98774.88;8357612;28;20460;-82
2024/04/01 08:39:35;;;;;;;47.75;11.35;;;;;;;14.83;81.18;98758.50;8370675;28;20040;-81
2024/04/01 08:43:39;;;;;;;49.25;11.52;;;;;;;15.15;79.45;98770.19;8373218;28;20057;-81
2024/04/01 08:47:50;;;;;;;41.20;10.25;;;;;;;15.27;74.54;98780.81;8374139;28;20079;-82
2024/04/01 08:51:56;;;;;;;44.05;10.18;;;;;;;15.85;72.56;98793.53;8393549;28;20060;-81
2024/04/01 08:55:57;;;;;;;37.00;9.30;;;;;;;16.14;68.06;98806.69;8387180;28;20110;-81
2024/04/01 08:59:57;;;;;;;37.30;8.82;;;;;;;15.87;68.73;98804.88;8358464;28;20465;-83
2024/04/01 09:03:58;;;;;;;34.10;8.90;;;;;;;15.91;66.93;98795.19;8373946;28;20087;-81
2024/04/01 09:07:59;;;;;;;40.10;9.30;;;;;;;16.01;66.78;98780.97;8357302;28;20071;-81
2024/04/01 09:12:00;;;;;;;25.35;7.10;;;;;;;16.23;65.13;98778.13;8356202;28;20053;-81
2024/04/01 09:16:01;;;;;;;27.63;8.00;;;;;;;16.40;65.33;98770.66;8373354;28;20087;-82
2024/04/01 09:20:02;;;;;;;33.42;7.30;;;;;;;16.67;63.25;98756.22;8376103;28;20055;-81
2024/04/01 09:24:03;;;;;;;27.58;8.02;;;;;;;16.73;63.08;98750.56;8379156;28;20088;-81
2024/04/01 09:28:04;;;;;;;26.38;6.38;;;;;;;16.78;61.15;98756.00;8378085;28;20080;-82
2024/04/01 09:32:05;;;;;;;33.15;6.47;;;;;;;16.71;60.57;98747.31;8377221;28;20064;-80
2024/04/01 09:36:07;;;;;;;25.33;6.07;;;;;;;16.85;60.99;98740.34;8378085;28;20440;-81
2024/04/01 09:40:09;;;;;;;30.52;6.55;;;;;;;16.96;61.14;98732.25;8375850;28;20095;-81
2024/04/01 09:44:10;;;;;;;25.58;6.35;;;;;;;17.03;60.31;98706.56;8378044;28;20563;-82
2024/04/01 09:48:13;;;;;;;29.83;6.88;;;;;;;17.03;59.73;98698.47;8379749;28;20107;-82
2024/04/01 09:52:13;;;;;;;22.92;5.38;;;;;;;17.45;59.62;98670.34;8383511;28;20081;-80
2024/04/01 09:56:39;;;;;;;31.85;6.45;;;;;;;17.77;58.93;98672.78;8385145;28;20083;-83
2024/04/01 10:01:06;;;;;;;24.80;6.05;;;;;;;18.54;56.68;98635.38;8366420;28;20102;-82
2024/04/01 10:05:29;;;;;;;23.23;5.75;;;;;;;19.65;52.36;98646.56;8381552;28;20072;-82
2024/04/01 10:09:42;;;;;;;26.02;5.65;;;;;;;20.49;50.59;98636.13;8363027;28;20107;-82
2024/04/01 10:14:17;;;;;;;21.13;5.53;;;;;;;20.73;47.81;98634.94;8383535;28;20107;-82
2024/04/01 10:18:36;;;;;;;20.77;5.05;;;;;;;21.50;46.12;98647.38;8403011;28;20045;-83
2024/04/01 10:22:37;;;;;;;;;;;;;;;20.77;46.05;98646.03;8391504;28;20059;-81
2024/04/01 10:27:10;;;;;;;19.17;4.43;;;;;;;20.95;44.52;98641.69;8379502;28;19921;-84
2024/04/01 10:31:14;;;;;;;24.75;4.30;;;;;;;20.91;43.92;98638.78;8384618;28;20049;-84
2024/04/01 10:35:34;;;;;;;22.92;4.22;;;;;;;20.61;45.16;98636.47;8389369;28;20056;-82
2024/04/01 10:39:44;;;;;;;18.70;3.22;;;;;;;20.27;45.02;98631.19;8362819;28;20127;-84
2024/04/01 10:44:25;;;;;;;16.67;2.65;;;;;;;20.26;45.20;98627.66;8361544;28;20088;-84
2024/04/01 10:48:27;;;;;;;15.20;2.85;;;;;;;20.03;43.59;98628.47;8376176;28;20161;-81
2024/04/01 10:52:56;;;;;;;15.38;3.05;;;;;;;19.62;43.74;98637.06;8376105;28;20080;-83
2024/04/01 10:57:35;;;;;;;12.70;3.20;;;;;;;19.40;44.48;98648.34;8376322;28;20073;-84
2024/04/01 11:02:14;;;;;;;16.10;2.97;;;;;;;19.28;45.45;98631.66;8375985;28;20088;-82
2024/04/01 11:06:33;;;;;;;13.77;2.75;;;;;;;19.61;45.00;98662.59;8344296;28;20485;-82
2024/04/01 11:10:47;;;;;;;15.88;2.42;;;;;;;19.48;44.90;98646.94;8342005;28;20085;-82
2024/04/01 11:14:51;;;;;;;15.57;3.22;;;;;;;19.39;45.62;98633.16;8365070;28;20099;-82
2024/04/01 11:19:33;;;;;;;10.27;2.70;;;;;;;19.76;47.05;98654.28;8374131;28;20166;-82
2024/04/01 11:23:42;;;;;;;7.63;2.47;;;;;;;19.20;47.41;98676.47;8340677;28;20139;-82
2024/04/01 11:28:11;;;;;;;12.55;2.90;;;;;;;19.06;47.78;98677.41;8374974;28;20138;-82
2024/04/01 11:32:19;;;;;;;16.60;3.67;;;;;;;18.70;48.57;98665.97;8376518;28;20088;-82
2024/04/01 11:36:29;;;;;;;16.85;3.58;;;;;;;18.95;48.48;98663.91;8368178;28;20056;-82
2024/04/01 11:40:33;;;;;;;13.95;2.85;;;;;;;18.87;48.48;98669.13;8367114;28;20056;-83
2024/04/01 11:44:36;;;;;;;14.80;2.97;;;;;;;19.14;48.70;98658.63;8378804;28;20158;-83
2024/04/01 11:48:37;;;;;;;17.40;3.20;;;;;;;19.46;47.55;98636.38;8379288;28;20037;-82
2024/04/01 11:52:38;;;;;;;20.92;3.95;;;;;;;19.72;47.28;98647.03;8401381;28;20083;-82
2024/04/01 11:56:40;;;;;;;22.75;3.88;;;;;;;20.27;46.73;98639.34;8384715;28;20088;-83
2024/04/01 12:00:55;;;;;;;12.25;2.65;;;;;;;20.32;45.80;98642.00;8379028;28;20123;-83
2024/04/01 12:05:04;;;;;;;20.92;3.75;;;;;;;20.56;45.23;98661.03;8360019;28;20501;-82
2024/04/01 12:09:10;;;;;;;11.02;3.17;;;;;;;20.30;44.44;98631.41;8376369;28;20091;-83
2024/04/01 12:13:13;;;;;;;16.40;3.00;;;;;;;20.66;44.15;98631.00;8377277;28;20072;-83
2024/04/01 12:17:13;;;;;;;13.55;2.65;;;;;;;20.26;44.89;98622.22;8375504;28;20505;-82
2024/04/01 12:21:18;;;;;;;16.65;2.97;;;;;;;20.58;45.00;98616.13;8374638;28;20090;-82
2024/04/01 12:25:21;;;;;;;16.45;3.58;;;;;;;20.27;46.49;98602.06;8357084;28;20510;-82
2024/04/01 12:29:22;;;;;;;9.35;2.65;;;;;;;20.37;45.10;98601.97;8374345;28;20088;-84
2024/04/01 12:33:22;;;;;;;12.93;3.13;;;;;;;19.98;44.42;98612.25;8365670;28;20136;-82
2024/04/01 12:37:25;;;;;;;10.32;2.10;;;;;;;19.79;45.20;98596.69;8384475;28;20127;-83
2024/04/01 12:41:27;;;;;;;16.63;3.60;;;;;;;19.83;45.12;98597.72;8375649;28;20099;-84
2024/04/01 12:45:29;;;;;;;15.05;3.15;;;;;;;19.74;44.64;98604.06;8341034;28;20139;-83
2024/04/01 12:49:31;;;;;;;13.55;3.22;;;;;;;19.50;45.95;98602.13;8390547;28;20461;-83
2024/04/01 12:53:32;;;;;;;14.40;3.47;;;;;;;19.40;46.64;98585.91;8375294;28;20099;-83
2024/04/01 12:57:35;;;;;;;20.13;2.90;;;;;;;19.16;47.63;98598.63;8378328;28;20045;-83
2024/04/01 13:01:45;;;;;;;12.57;2.58;;;;;;;19.13;48.50;98605.44;8372102;28;20077;-83
2024/04/01 13:05:49;;;;;;;14.73;3.22;;;;;;;19.01;49.35;98615.84;8374973;28;20095;-83
2024/04/01 13:09:56;;;;;;;17.60;3.60;;;;;;;19.03;48.71;98621.78;8376231;28;20092;-83
2024/04/01 13:14:18;;;;;;;17.27;3.03;;;;;;;19.04;50.19;98633.47;8369352;28;20422;-82
2024/04/01 13:18:50;;;;;;;17.20;3.13;;;;;;;19.00;50.15;98622.38;8398472;28;20048;-82
2024/04/01 13:23:03;;;;;;;16.75;3.58;;;;;;;18.96;50.38;98615.88;8388158;28;20075;-82
2024/04/01 13:27:30;;;;;;;17.23;3.45;;;;;;;19.15;50.33;98619.53;8378849;28;20087;-82
2024/04/01 13:31:37;;;;;;;14.88;3.50;;;;;;;19.26;50.21;98628.38;8375187;28;20088;-84
2024/04/01 13:35:59;;;;;;;17.83;2.92;;;;;;;19.12;51.09;98641.81;8382192;28;20056;-83
2024/04/01 13:40:41;;;;;;;10.85;3.00;;;;;;;19.27;51.04;98651.75;8381037;28;20053;-82
2024/04/01 13:44:55;;;;;;;12.55;3.22;;;;;;;19.78;50.10;98641.22;8380760;28;20045;-82
2024/04/01 13:49:33;;;;;;;8.27;2.28;;;;;;;20.22;48.17;98642.94;8390720;28;20099;-82
2024/04/01 13:54:11;;;;;;;11.23;3.00;;;;;;;21.49;46.98;98643.03;8394032;28;20045;-83
2024/04/01 13:58:49;;;;;;;12.07;3.00;;;;;;;22.20;43.48;98658.91;8391049;28;20057;-82
2024/04/01 14:03:23;;;;;;;15.82;2.60;;;;;;;21.99;43.70;98665.84;8391290;28;20057;-82
2024/04/01 14:07:43;;;;;;;26.40;3.42;;;;;;;20.96;44.41;98681.44;8394352;28;20029;-82
2024/04/01 14:12:14;;;;;;;11.55;1.80;;;;;;;20.18;44.01;98674.53;8393450;28;20049;-82
2024/04/01 14:16:29;;;;;;;10.50;2.58;;;;;;;20.37;43.64;98683.53;8389774;28;20052;-81
2024/04/01 14:20:38;;;;;;;12.43;2.63;;;;;;;20.29;44.86;98684.16;8384097;28;20057;-81
2024/04/01 14:24:41;;;;;;;;;;;;;;;19.65;45.28;98688.09;8394406;28;20049;-81
2024/04/01 14:28:42;;;;;;;16.20;2.65;;;;;;;19.68;45.95;98678.56;8380731;28;19971;-82
2024/04/01 14:32:43;;;;;;;12.98;2.95;;;;;;;19.84;46.42;98680.06;8376476;28;20074;-83
2024/04/01 14:36:44;;;;;;;9.80;2.47;;;;;;;19.51;45.91;98687.91;8391971;28;20041;-82
2024/04/01 14:40:48;;;;;;;8.75;2.53;;;;;;;20.08;46.32;98680.06;8370513;28;20060;-83
2024/04/01 14:44:50;;;;;;;16.50;3.17;;;;;;;20.16;45.80;98695.75;8378344;28;20089;-82
2024/04/01 14:48:52;;;;;;;12.98;2.67;;;;;;;20.55;45.21;98681.19;8346854;28;20077;-83
2024/04/01 14:52:53;;;;;;;15.70;3.08;;;;;;;19.64;46.15;98708.22;8358708;28;20098;-82
2024/04/01 14:56:56;;;;;;;19.50;7.07;;;;;;;18.50;55.72;98746.28;8383227;28;20083;-82
2024/04/01 15:00:57;;;;;;;31.48;10.65;;;;;;;18.14;59.99;98763.72;8378194;28;20591;-84
2024/04/01 15:04:58;;;;;;;17.50;6.88;;;;;;;17.29;62.50;98787.78;8378020;28;20093;-82
2024/04/01 15:08:59;;;;;;;26.27;9.48;;;;;;;17.04;61.57;98783.13;8360137;28;20084;-81
2024/04/01 15:13:04;;;;;;;19.48;8.80;;;;;;;16.49;63.03;98828.56;8376186;28;20060;-82
2024/04/01 15:17:05;;;;;;;26.23;11.48;;;;;;;16.22;65.53;98820.53;8376177;28;20107;-82
2024/04/01 15:21:05;;;;;;;45.03;13.90;;;;;;;16.07;67.21;98817.72;8375768;28;20134;-80
2024/04/01 15:25:06;;;;;;;35.38;11.40;;;;;;;16.17;68.31;98847.53;8373452;28;20053;-81
2024/04/01 15:29:07;;;;;;;35.08;11.27;;;;;;;15.75;71.13;98842.03;8355152;28;20053;-82
2024/04/01 15:33:08;;;;;;;37.08;12.75;;;;;;;15.64;72.91;98840.31;8346648;28;20099;-81
2024/04/01 15:37:09;;;;;;;29.13;10.00;;;;;;;15.20;75.82;98871.91;8373200;28;20045;-81
2024/04/01 15:41:10;;;;;;;34.53;12.93;;;;;;;15.23;77.36;98869.53;8373975;28;20186;-82
2024/04/01 15:45:11;;;;;;;50.70;16.33;;;;;;;15.06;79.02;98877.69;8356814;28;20097;-82
2024/04/01 15:49:12;;;;;;;41.20;14.57;;;;;;;14.82;80.61;98905.97;8372180;28;20072;-81
2024/04/01 15:53:13;;;;;;;25.08;10.73;;;;;;;14.38;85.92;98905.81;8373714;28;20098;-82
2024/04/01 15:57:13;;;;;;;26.60;7.70;;;;;;;14.12;88.58;98918.06;8375566;28;20083;-84
2024/04/01 16:01:16;;;;;;;10.30;4.88;;;;;;;13.84;87.71;98921.59;8357134;28;20266;-82
2024/04/01 16:05:19;;;;;;;6.28;2.85;;;;;;;13.52;86.18;98948.19;8380155;28;20099;-84
2024/04/01 16:09:22;;;;;;;11.13;3.88;;;;;;;13.43;86.69;98944.25;8362093;28;20092;-82
2024/04/01 16:13:23;;;;;;;4.35;2.70;;;;;;;13.51;88.95;98953.81;8376118;28;20092;-82
2024/04/01 16:17:31;;;;;;;10.30;2.85;;;;;;;13.08;92.76;98952.38;8387711;28;20059;-82
2024/04/01 16:21:58;;;;;;;6.03;3.47;;;;;;;13.23;91.87;98947.34;8396162;28;20057;-81
2024/04/01 16:26:00;;;;;;;8.38;4.43;;;;;;;13.35;94.26;98957.25;8385066;28;20056;-83
2024/04/01 16:30:11;;;;;;;11.70;5.95;;;;;;;13.26;98.07;98975.63;8381526;28;20055;-82
2024/04/01 16:34:12;;;;;;;14.02;5.07;;;;;;;13.17;98.73;98972.44;8363499;28;20088;-82
2024/04/01 16:38:13;;;;;;;7.78;5.60;;;;;;;13.42;98.46;99006.38;8378400;28;20083;-82
2024/04/01 16:42:15;;;;;;;15.55;6.07;;;;;;;13.55;95.95;99038.41;8390482;28;20071;-80
2024/04/01 16:46:17;;;;;;;11.35;6.30;;;;;;;13.42;99.94;99017.13;8380561;28;20060;-80
2024/04/01 16:50:20;;;;;;;7.60;4.93;;;;;;;13.22;100.00;99010.25;8351739;28;20080;-80
2024/04/01 16:54:20;;;;;;;12.73;5.43;;;;;;;13.21;100.00;99035.50;8352034;28;20088;-81
2024/04/01 16:58:22;;;;;;;7.93;4.47;;;;;;;12.99;100.00;99053.22;8373242;28;20409;-82
2024/04/01 17:02:24;;;;;;;5.47;3.38;;;;;;;12.84;100.00;99053.72;8373996;28;20490;-85
2024/04/01 17:06:26;;;;;;;11.07;4.95;;;;;;;13.16;100.00;99050.66;8370183;28;20448;-83
2024/04/01 17:10:27;;;;;;;9.60;5.45;;;;;;;13.33;100.00;99050.81;8372818;28;20084;-84
2024/04/01 17:14:30;;;;;;;8.30;4.63;;;;;;;13.37;99.43;99054.69;8357843;28;20069;-84
2024/04/01 17:18:31;;;;;;;6.22;4.35;;;;;;;13.02;99.31;99058.16;8373656;28;20077;-83
2024/04/01 17:22:43;;;;;;;5.00;3.08;;;;;;;13.33;94.75;99056.19;8374680;28;20135;-82
2024/04/01 17:26:44;;;;;;;6.22;4.00;;;;;;;13.21;96.36;99054.34;8359454;28;20084;-81
2024/04/01 17:30:47;;;;;;;9.30;3.63;;;;;;;13.15;96.20;99054.41;8376610;28;20057;-81
2024/04/01 17:34:51;;;;;;;5.25;3.47;;;;;;;13.20;95.57;99046.50;8360614;28;20096;-81
2024/04/01 17:38:52;;;;;;;7.38;3.65;;;;;;;12.97;97.02;99056.16;8377466;28;20098;-82
2024/04/01 17:42:53;;;;;;;4.80;3.53;;;;;;;13.03;97.42;99049.06;8382497;28;20099;-82
2024/04/01 17:46:54;;;;;;;6.28;4.07;;;;;;;13.09;95.05;99042.72;8365158;28;20049;-83
2024/04/01 17:50:55;;;;;;;7.20;3.47;;;;;;;13.17;94.79;99045.03;8376273;28;20083;-83
2024/04/01 17:54:56;;;;;;;7.97;3.30;;;;;;;13.20;95.01;99063.47;8396281;28;20048;-84
2024/04/01 17:58:56;;;;;;;4.13;2.78;;;;;;;13.15;95.50;99065.16;8385150;28;20045;-84
2024/04/01 18:02:59;;;;;;;5.20;2.80;;;;;;;12.93;100.00;99073.81;8368235;28;20525;-83
2024/04/01 18:07:00;;;;;;;14.43;2.15;;;;;;;12.62;97.03;99076.78;8366895;28;20085;-83
2024/04/01 18:11:01;;;;;;;4.15;1.30;;;;;;;12.52;94.41;99092.66;8365465;28;20055;-81
2024/04/01 18:15:03;;;;;;;3.45;2.53;;;;;;;12.57;98.95;99119.66;8379526;28;20084;-84
2024/04/01 18:19:03;;;;;;;2.25;1.50;;;;;;;11.62;100.00;99120.16;8379427;28;20520;-85
2024/04/01 18:23:04;;;;;;;4.20;2.83;;;;;;;11.55;100.00;99114.06;8379256;28;20056;-86
2024/04/01 18:27:05;;;;;;;3.28;2.58;;;;;;;11.37;100.00;99119.41;8378090;28;20502;-84
2024/04/01 18:31:07;;;;;;;4.88;3.05;;;;;;;11.63;100.00;99131.75;8381202;28;20102;-83
2024/04/01 18:35:09;;;;;;;5.05;3.17;;;;;;;11.52;100.00;99144.03;8361514;28;20099;-84
2024/04/01 18:39:09;;;;;;;3.47;2.70;;;;;;;11.39;100.00;99171.78;8358621;28;20107;-84
2024/04/01 18:43:21;;;;;;;6.45;4.65;;;;;;;11.67;100.00;99159.78;8357011;28;20053;-84
2024/04/01 18:47:21;;;;;;;4.40;2.65;;;;;;;11.57;100.00;99159.44;8367677;28;20045;-84